sensor_id;sensor_type;location;lat;lon;timestamp;P1;durP1;ratioP1;P2;durP2;ratioP2
4921;SDS011;16625;53.624;10.106;2022-12-07T06:48:05;5.23;;;3.70;;
4921;SDS011;16625;53.624;10.106;2022-12-07T06:50:31;7.03;;;4.90;;
4921;SDS011;16625;53.624;10.106;2022-12-07T06:52:58;6.60;;;4.17;;
4921;SDS011;16625;53.624;10.106;2022-12-07T06:55:25;6.40;;;4.80;;
4921;SDS011;16625;53.624;10.106;2022-12-07T06:57:52;6.67;;;4.23;;
4921;SDS011;16625;53.624;10.106;2022-12-07T07:00:19;10.07;;;5.17;;
4921;SDS011;16625;53.624;10.106;2022-12-07T07:02:46;8.40;;;4.70;;
4921;SDS011;16625;53.624;10.106;2022-12-07T07:05:15;5.80;;;4.23;;
4921;SDS011;16625;53.624;10.106;2022-12-07T07:07:42;7.40;;;3.97;;
4921;SDS011;16625;53.624;10.106;2022-12-07T07:10:09;6.53;;;3.90;;
4921;SDS011;16625;53.624;10.106;2022-12-07T07:12:36;6.10;;;3.10;;
4921;SDS011;16625;53.624;10.106;2022-12-07T07:15:03;5.00;;;3.00;;
4921;SDS011;16625;53.624;10.106;2022-12-07T07:17:31;3.90;;;3.40;;
4921;SDS011;16625;53.624;10.106;2022-12-07T07:19:58;6.47;;;4.20;;
4921;SDS011;16625;53.624;10.106;2022-12-07T07:22:26;5.00;;;3.93;;
4921;SDS011;16625;53.624;10.106;2022-12-07T07:24:53;5.60;;;3.70;;
4921;SDS011;16625;53.624;10.106;2022-12-07T07:27:20;7.87;;;3.90;;
4921;SDS011;16625;53.624;10.106;2022-12-07T07:29:47;7.60;;;4.07;;
4921;SDS011;16625;53.624;10.106;2022-12-07T07:32:14;7.80;;;3.60;;
4921;SDS011;16625;53.624;10.106;2022-12-07T07:34:41;5.87;;;3.30;;
4921;SDS011;16625;53.624;10.106;2022-12-07T07:37:08;8.20;;;3.50;;
4921;SDS011;16625;53.624;10.106;2022-12-07T07:39:37;6.70;;;3.33;;
4921;SDS011;16625;53.624;10.106;2022-12-07T07:42:04;6.60;;;3.67;;
4921;SDS011;16625;53.624;10.106;2022-12-07T07:44:33;9.93;;;3.20;;
4921;SDS011;16625;53.624;10.106;2022-12-07T07:47:00;5.57;;;2.53;;
4921;SDS011;16625;53.624;10.106;2022-12-07T07:49:28;4.40;;;2.83;;
4921;SDS011;16625;53.624;10.106;2022-12-07T07:51:55;9.70;;;4.10;;
4921;SDS011;16625;53.624;10.106;2022-12-07T07:54:22;4.60;;;3.13;;
4921;SDS011;16625;53.624;10.106;2022-12-07T07:56:50;5.50;;;2.90;;
4921;SDS011;16625;53.624;10.106;2022-12-07T07:59:18;6.83;;;3.47;;
4921;SDS011;16625;53.624;10.106;2022-12-07T08:01:45;9.80;;;3.37;;
4921;SDS011;16625;53.624;10.106;2022-12-07T08:04:12;5.10;;;2.53;;
4921;SDS011;16625;53.624;10.106;2022-12-07T08:06:38;4.63;;;3.37;;
4921;SDS011;16625;53.624;10.106;2022-12-07T08:09:07;6.93;;;2.80;;
4921;SDS011;16625;53.624;10.106;2022-12-07T08:11:34;6.33;;;2.90;;
4921;SDS011;16625;53.624;10.106;2022-12-07T08:14:03;7.97;;;3.20;;
4921;SDS011;16625;53.624;10.106;2022-12-07T08:16:29;3.93;;;2.60;;
4921;SDS011;16625;53.624;10.106;2022-12-07T08:18:56;5.53;;;2.60;;
4921;SDS011;16625;53.624;10.106;2022-12-07T08:21:23;3.40;;;2.70;;
4921;SDS011;16625;53.624;10.106;2022-12-07T08:23:50;5.03;;;3.30;;
4921;SDS011;16625;53.624;10.106;2022-12-07T08:26:16;5.30;;;2.60;;
4921;SDS011;16625;53.624;10.106;2022-12-07T08:28:43;3.37;;;2.50;;
4921;SDS011;16625;53.624;10.106;2022-12-07T08:31:13;5.77;;;2.67;;
4921;SDS011;16625;53.624;10.106;2022-12-07T08:33:42;4.37;;;2.57;;
4921;SDS011;16625;53.624;10.106;2022-12-07T08:36:11;10.83;;;2.27;;
4921;SDS011;16625;53.624;10.106;2022-12-07T08:38:39;7.73;;;2.40;;
4921;SDS011;16625;53.624;10.106;2022-12-07T08:41:07;7.50;;;3.37;;
4921;SDS011;16625;53.624;10.106;2022-12-07T08:43:34;5.63;;;2.97;;
4921;SDS011;16625;53.624;10.106;2022-12-07T08:46:08;5.60;;;3.20;;
4921;SDS011;16625;53.624;10.106;2022-12-07T08:48:38;5.77;;;2.47;;
4921;SDS011;16625;53.624;10.106;2022-12-07T08:51:11;3.50;;;2.67;;
4921;SDS011;16625;53.624;10.106;2022-12-07T09:00:23;9.43;;;2.80;;
4921;SDS011;16625;53.624;10.106;2022-12-07T09:02:50;4.23;;;2.33;;
4921;SDS011;16625;53.624;10.106;2022-12-07T09:05:19;3.20;;;2.90;;
4921;SDS011;16625;53.624;10.106;2022-12-07T09:07:50;15.93;;;2.40;;
4921;SDS011;16625;53.624;10.106;2022-12-07T09:10:39;14.97;;;2.97;;
4921;SDS011;16625;53.624;10.106;2022-12-07T09:13:07;7.70;;;2.90;;
4921;SDS011;16625;53.624;10.106;2022-12-07T09:15:39;10.03;;;3.57;;
4921;SDS011;16625;53.624;10.106;2022-12-07T09:18:20;4.13;;;2.40;;
4921;SDS011;16625;53.624;10.106;2022-12-07T09:20:51;10.20;;;2.73;;
4921;SDS011;16625;53.624;10.106;2022-12-07T09:23:19;7.13;;;3.00;;
4921;SDS011;16625;53.624;10.106;2022-12-07T09:25:47;4.13;;;2.33;;
4921;SDS011;16625;53.624;10.106;2022-12-07T09:28:14;4.57;;;2.60;;
4921;SDS011;16625;53.624;10.106;2022-12-07T09:30:44;3.97;;;2.83;;
4921;SDS011;16625;53.624;10.106;2022-12-07T09:33:12;4.50;;;2.60;;
4921;SDS011;16625;53.624;10.106;2022-12-07T09:35:43;4.40;;;2.80;;
4921;SDS011;16625;53.624;10.106;2022-12-07T09:38:16;8.73;;;2.47;;
4921;SDS011;16625;53.624;10.106;2022-12-07T09:41:08;3.73;;;2.67;;
4921;SDS011;16625;53.624;10.106;2022-12-07T09:43:35;6.60;;;3.07;;
4921;SDS011;16625;53.624;10.106;2022-12-07T09:46:05;11.23;;;3.70;;
4921;SDS011;16625;53.624;10.106;2022-12-07T09:48:33;11.20;;;3.03;;
4921;SDS011;16625;53.624;10.106;2022-12-07T09:51:09;3.57;;;2.43;;
4921;SDS011;16625;53.624;10.106;2022-12-07T09:53:47;6.53;;;3.00;;
4921;SDS011;16625;53.624;10.106;2022-12-07T09:56:16;6.00;;;2.87;;
4921;SDS011;16625;53.624;10.106;2022-12-07T09:58:48;3.73;;;2.40;;
4921;SDS011;16625;53.624;10.106;2022-12-07T10:01:19;2.17;;;1.97;;
4921;SDS011;16625;53.624;10.106;2022-12-07T10:03:48;9.67;;;2.30;;
4921;SDS011;16625;53.624;10.106;2022-12-07T10:06:18;5.50;;;2.83;;
4921;SDS011;16625;53.624;10.106;2022-12-07T10:08:52;4.23;;;2.37;;
4921;SDS011;16625;53.624;10.106;2022-12-07T10:11:19;15.00;;;2.50;;
4921;SDS011;16625;53.624;10.106;2022-12-07T10:13:49;11.17;;;3.00;;
4921;SDS011;16625;53.624;10.106;2022-12-07T10:16:32;3.77;;;2.80;;
4921;SDS011;16625;53.624;10.106;2022-12-07T10:19:24;2.67;;;2.47;;
4921;SDS011;16625;53.624;10.106;2022-12-07T10:22:09;9.13;;;2.50;;
4921;SDS011;16625;53.624;10.106;2022-12-07T10:24:47;4.77;;;3.03;;
4921;SDS011;16625;53.624;10.106;2022-12-07T10:27:29;4.20;;;2.40;;
4921;SDS011;16625;53.624;10.106;2022-12-07T10:30:07;2.20;;;2.00;;
4921;SDS011;16625;53.624;10.106;2022-12-07T10:32:40;5.80;;;2.30;;
4921;SDS011;16625;53.624;10.106;2022-12-07T10:35:18;5.57;;;2.27;;
4921;SDS011;16625;53.624;10.106;2022-12-07T10:37:49;6.23;;;3.53;;
4921;SDS011;16625;53.624;10.106;2022-12-07T10:40:26;2.47;;;1.53;;
4921;SDS011;16625;53.624;10.106;2022-12-07T10:43:16;5.10;;;2.53;;
4921;SDS011;16625;53.624;10.106;2022-12-07T10:45:59;4.30;;;2.70;;
4921;SDS011;16625;53.624;10.106;2022-12-07T10:48:40;7.80;;;2.60;;
4921;SDS011;16625;53.624;10.106;2022-12-07T10:51:15;6.90;;;2.70;;
4921;SDS011;16625;53.624;10.106;2022-12-07T10:53:53;6.10;;;3.17;;
4921;SDS011;16625;53.624;10.106;2022-12-07T10:56:44;6.50;;;3.10;;
4921;SDS011;16625;53.624;10.106;2022-12-07T10:59:41;6.13;;;3.77;;
4921;SDS011;16625;53.624;10.106;2022-12-07T11:02:30;10.43;;;2.50;;
4921;SDS011;16625;53.624;10.106;2022-12-07T11:05:12;4.43;;;2.20;;
4921;SDS011;16625;53.624;10.106;2022-12-07T11:07:47;13.00;;;3.40;;
4921;SDS011;16625;53.624;10.106;2022-12-07T11:10:24;2.50;;;1.80;;
4921;SDS011;16625;53.624;10.106;2022-12-07T11:13:03;1.80;;;1.70;;
4921;SDS011;16625;53.624;10.106;2022-12-07T11:16:07;3.17;;;1.93;;
4921;SDS011;16625;53.624;10.106;2022-12-07T11:18:49;6.90;;;2.80;;
4921;SDS011;16625;53.624;10.106;2022-12-07T11:21:26;6.33;;;3.00;;
4921;SDS011;16625;53.624;10.106;2022-12-07T11:24:01;6.07;;;2.77;;
4921;SDS011;16625;53.624;10.106;2022-12-07T11:26:39;9.20;;;3.60;;
4921;SDS011;16625;53.624;10.106;2022-12-07T11:29:26;6.10;;;2.83;;
4921;SDS011;16625;53.624;10.106;2022-12-07T11:32:07;4.37;;;2.30;;
4921;SDS011;16625;53.624;10.106;2022-12-07T11:34:46;7.43;;;2.40;;
4921;SDS011;16625;53.624;10.106;2022-12-07T11:37:30;3.67;;;2.40;;
4921;SDS011;16625;53.624;10.106;2022-12-07T11:40:00;4.53;;;2.70;;
4921;SDS011;16625;53.624;10.106;2022-12-07T11:42:31;2.83;;;1.90;;
4921;SDS011;16625;53.624;10.106;2022-12-07T11:45:10;3.70;;;1.90;;
4921;SDS011;16625;53.624;10.106;2022-12-07T11:47:45;4.40;;;2.20;;
4921;SDS011;16625;53.624;10.106;2022-12-07T11:50:21;6.20;;;2.00;;
4921;SDS011;16625;53.624;10.106;2022-12-07T11:52:55;6.30;;;2.43;;
4921;SDS011;16625;53.624;10.106;2022-12-07T11:55:26;3.63;;;1.90;;
4921;SDS011;16625;53.624;10.106;2022-12-07T11:58:10;8.03;;;2.60;;
4921;SDS011;16625;53.624;10.106;2022-12-07T12:03:46;8.90;;;2.53;;
4921;SDS011;16625;53.624;10.106;2022-12-07T12:06:17;3.17;;;1.60;;
4921;SDS011;16625;53.624;10.106;2022-12-07T12:08:45;10.23;;;2.00;;
4921;SDS011;16625;53.624;10.106;2022-12-07T12:11:20;10.70;;;2.80;;
4921;SDS011;16625;53.624;10.106;2022-12-07T12:14:04;5.67;;;2.80;;
4921;SDS011;16625;53.624;10.106;2022-12-07T12:19:57;11.57;;;3.20;;
4921;SDS011;16625;53.624;10.106;2022-12-07T12:22:32;7.83;;;3.50;;
4921;SDS011;16625;53.624;10.106;2022-12-07T12:25:04;18.43;;;3.00;;
4921;SDS011;16625;53.624;10.106;2022-12-07T12:27:35;4.90;;;1.60;;
4921;SDS011;16625;53.624;10.106;2022-12-07T12:30:05;5.60;;;2.03;;
4921;SDS011;16625;53.624;10.106;2022-12-07T12:32:51;4.77;;;2.10;;
4921;SDS011;16625;53.624;10.106;2022-12-07T12:35:26;4.27;;;1.50;;
4921;SDS011;16625;53.624;10.106;2022-12-07T12:40:56;1.67;;;1.57;;
4921;SDS011;16625;53.624;10.106;2022-12-07T12:58:37;2.60;;;2.07;;
4921;SDS011;16625;53.624;10.106;2022-12-07T13:04:21;4.27;;;2.60;;
4921;SDS011;16625;53.624;10.106;2022-12-07T13:06:52;7.80;;;2.30;;
4921;SDS011;16625;53.624;10.106;2022-12-07T13:09:22;6.17;;;2.47;;
4921;SDS011;16625;53.624;10.106;2022-12-07T13:11:55;5.83;;;2.00;;
4921;SDS011;16625;53.624;10.106;2022-12-07T13:14:37;3.90;;;2.10;;
4921;SDS011;16625;53.624;10.106;2022-12-07T13:23:10;13.37;;;2.97;;
4921;SDS011;16625;53.624;10.106;2022-12-07T13:25:42;3.53;;;1.73;;
4921;SDS011;16625;53.624;10.106;2022-12-07T13:28:15;2.87;;;2.00;;
4921;SDS011;16625;53.624;10.106;2022-12-07T13:33:35;12.63;;;2.53;;
4921;SDS011;16625;53.624;10.106;2022-12-07T13:36:02;2.83;;;1.80;;
4921;SDS011;16625;53.624;10.106;2022-12-07T13:38:30;6.57;;;2.30;;
4921;SDS011;16625;53.624;10.106;2022-12-07T13:41:10;2.13;;;1.80;;
4921;SDS011;16625;53.624;10.106;2022-12-07T13:43:43;3.47;;;2.43;;
4921;SDS011;16625;53.624;10.106;2022-12-07T13:46:11;1.80;;;1.70;;
4921;SDS011;16625;53.624;10.106;2022-12-07T13:48:43;8.97;;;1.87;;
4921;SDS011;16625;53.624;10.106;2022-12-07T13:51:16;7.07;;;2.60;;
4921;SDS011;16625;53.624;10.106;2022-12-07T13:53:46;3.43;;;2.13;;
4921;SDS011;16625;53.624;10.106;2022-12-07T13:56:15;6.53;;;2.80;;
4921;SDS011;16625;53.624;10.106;2022-12-07T13:58:42;1.70;;;1.50;;
4921;SDS011;16625;53.624;10.106;2022-12-07T14:01:09;1.77;;;1.67;;
4921;SDS011;16625;53.624;10.106;2022-12-07T14:03:38;2.60;;;2.20;;
4921;SDS011;16625;53.624;10.106;2022-12-07T14:06:16;4.03;;;1.93;;
4921;SDS011;16625;53.624;10.106;2022-12-07T14:08:47;1.83;;;1.73;;
4921;SDS011;16625;53.624;10.106;2022-12-07T14:11:17;3.97;;;1.90;;
4921;SDS011;16625;53.624;10.106;2022-12-07T14:13:56;1.57;;;1.47;;
4921;SDS011;16625;53.624;10.106;2022-12-07T14:16:26;3.30;;;2.23;;
4921;SDS011;16625;53.624;10.106;2022-12-07T14:19:37;4.20;;;1.90;;
4921;SDS011;16625;53.624;10.106;2022-12-07T14:22:19;3.50;;;1.87;;
4921;SDS011;16625;53.624;10.106;2022-12-07T14:25:00;1.87;;;1.70;;
4921;SDS011;16625;53.624;10.106;2022-12-07T14:27:32;3.50;;;2.47;;
4921;SDS011;16625;53.624;10.106;2022-12-07T14:30:01;2.90;;;2.20;;
4921;SDS011;16625;53.624;10.106;2022-12-07T14:32:29;7.67;;;2.93;;
4921;SDS011;16625;53.624;10.106;2022-12-07T14:35:01;4.97;;;2.57;;
4921;SDS011;16625;53.624;10.106;2022-12-07T14:37:30;21.50;;;4.47;;
4921;SDS011;16625;53.624;10.106;2022-12-07T14:39:57;4.90;;;2.70;;
4921;SDS011;16625;53.624;10.106;2022-12-07T14:42:25;4.93;;;3.03;;
4921;SDS011;16625;53.624;10.106;2022-12-07T14:44:56;5.43;;;2.37;;
4921;SDS011;16625;53.624;10.106;2022-12-07T14:47:23;9.23;;;4.20;;
4921;SDS011;16625;53.624;10.106;2022-12-07T14:49:52;9.63;;;2.63;;
4921;SDS011;16625;53.624;10.106;2022-12-07T14:52:20;4.30;;;2.50;;
4921;SDS011;16625;53.624;10.106;2022-12-07T14:54:49;6.30;;;3.03;;
4921;SDS011;16625;53.624;10.106;2022-12-07T14:57:16;8.27;;;2.10;;
4921;SDS011;16625;53.624;10.106;2022-12-07T14:59:42;2.63;;;2.33;;
4921;SDS011;16625;53.624;10.106;2022-12-07T15:02:12;9.43;;;2.73;;
4921;SDS011;16625;53.624;10.106;2022-12-07T15:04:41;9.73;;;2.93;;
4921;SDS011;16625;53.624;10.106;2022-12-07T15:07:10;4.00;;;2.13;;
4921;SDS011;16625;53.624;10.106;2022-12-07T15:09:41;6.17;;;2.70;;
4921;SDS011;16625;53.624;10.106;2022-12-07T15:12:08;6.77;;;2.50;;
4921;SDS011;16625;53.624;10.106;2022-12-07T15:14:35;4.00;;;2.57;;
4921;SDS011;16625;53.624;10.106;2022-12-07T15:17:02;2.63;;;1.97;;
4921;SDS011;16625;53.624;10.106;2022-12-07T15:19:30;2.30;;;2.10;;
4921;SDS011;16625;53.624;10.106;2022-12-07T15:27:08;6.13;;;2.93;;
4921;SDS011;16625;53.624;10.106;2022-12-07T15:29:35;11.87;;;3.43;;
4921;SDS011;16625;53.624;10.106;2022-12-07T15:32:01;5.63;;;2.90;;
4921;SDS011;16625;53.624;10.106;2022-12-07T15:34:28;4.80;;;3.23;;
4921;SDS011;16625;53.624;10.106;2022-12-07T15:36:57;5.13;;;2.50;;
4921;SDS011;16625;53.624;10.106;2022-12-07T15:39:23;2.37;;;2.17;;
4921;SDS011;16625;53.624;10.106;2022-12-07T15:41:50;5.73;;;2.20;;
4921;SDS011;16625;53.624;10.106;2022-12-07T15:44:17;4.73;;;2.40;;
4921;SDS011;16625;53.624;10.106;2022-12-07T15:47:01;3.40;;;2.20;;
4921;SDS011;16625;53.624;10.106;2022-12-07T15:49:31;6.90;;;2.73;;
4921;SDS011;16625;53.624;10.106;2022-12-07T15:51:58;2.33;;;1.93;;
4921;SDS011;16625;53.624;10.106;2022-12-07T15:54:25;3.70;;;2.03;;
4921;SDS011;16625;53.624;10.106;2022-12-07T15:56:53;2.83;;;2.33;;
4921;SDS011;16625;53.624;10.106;2022-12-07T15:59:21;2.70;;;1.90;;
4921;SDS011;16625;53.624;10.106;2022-12-07T16:01:48;4.30;;;2.43;;
4921;SDS011;16625;53.624;10.106;2022-12-07T16:04:15;3.17;;;2.87;;
4921;SDS011;16625;53.624;10.106;2022-12-07T16:06:54;3.90;;;2.10;;
4921;SDS011;16625;53.624;10.106;2022-12-07T16:09:21;2.00;;;1.80;;
4921;SDS011;16625;53.624;10.106;2022-12-07T16:11:48;3.70;;;2.43;;
4921;SDS011;16625;53.624;10.106;2022-12-07T16:14:20;3.17;;;2.43;;
4921;SDS011;16625;53.624;10.106;2022-12-07T16:16:47;3.47;;;2.30;;
4921;SDS011;16625;53.624;10.106;2022-12-07T16:19:14;7.90;;;2.17;;
4921;SDS011;16625;53.624;10.106;2022-12-07T16:21:41;5.33;;;2.43;;
4921;SDS011;16625;53.624;10.106;2022-12-07T16:24:09;3.40;;;2.33;;
4921;SDS011;16625;53.624;10.106;2022-12-07T16:26:38;3.97;;;2.70;;
4921;SDS011;16625;53.624;10.106;2022-12-07T16:29:04;3.60;;;2.93;;
4921;SDS011;16625;53.624;10.106;2022-12-07T16:31:31;2.20;;;2.00;;
4921;SDS011;16625;53.624;10.106;2022-12-07T16:33:58;4.63;;;2.53;;
4921;SDS011;16625;53.624;10.106;2022-12-07T16:36:25;5.60;;;2.33;;
4921;SDS011;16625;53.624;10.106;2022-12-07T16:38:52;4.57;;;3.10;;
4921;SDS011;16625;53.624;10.106;2022-12-07T16:41:24;5.47;;;2.90;;
4921;SDS011;16625;53.624;10.106;2022-12-07T16:43:50;3.73;;;2.80;;
4921;SDS011;16625;53.624;10.106;2022-12-07T16:46:17;4.17;;;2.57;;
4921;SDS011;16625;53.624;10.106;2022-12-07T16:48:44;7.00;;;2.83;;
4921;SDS011;16625;53.624;10.106;2022-12-07T16:51:12;10.23;;;3.10;;
4921;SDS011;16625;53.624;10.106;2022-12-07T16:57:05;2.33;;;1.87;;
4921;SDS011;16625;53.624;10.106;2022-12-07T16:59:31;12.03;;;2.80;;
4921;SDS011;16625;53.624;10.106;2022-12-07T17:01:58;5.33;;;3.10;;
4921;SDS011;16625;53.624;10.106;2022-12-07T17:04:25;8.00;;;5.63;;
4921;SDS011;16625;53.624;10.106;2022-12-07T17:06:52;9.30;;;5.30;;
4921;SDS011;16625;53.624;10.106;2022-12-07T17:09:19;9.33;;;5.50;;
4921;SDS011;16625;53.624;10.106;2022-12-07T17:11:46;11.47;;;4.90;;
4921;SDS011;16625;53.624;10.106;2022-12-07T17:14:14;7.80;;;3.93;;
4921;SDS011;16625;53.624;10.106;2022-12-07T17:16:59;7.27;;;4.10;;
4921;SDS011;16625;53.624;10.106;2022-12-07T17:19:25;6.20;;;3.70;;
4921;SDS011;16625;53.624;10.106;2022-12-07T17:21:52;3.57;;;2.93;;
4921;SDS011;16625;53.624;10.106;2022-12-07T17:24:19;7.13;;;2.90;;
4921;SDS011;16625;53.624;10.106;2022-12-07T17:26:46;20.43;;;3.60;;
4921;SDS011;16625;53.624;10.106;2022-12-07T17:29:15;3.07;;;2.77;;
4921;SDS011;16625;53.624;10.106;2022-12-07T17:31:43;2.83;;;2.53;;
4921;SDS011;16625;53.624;10.106;2022-12-07T17:34:11;3.23;;;2.90;;
4921;SDS011;16625;53.624;10.106;2022-12-07T17:36:40;10.03;;;3.13;;
4921;SDS011;16625;53.624;10.106;2022-12-07T17:39:07;5.00;;;3.20;;
4921;SDS011;16625;53.624;10.106;2022-12-07T17:41:35;3.53;;;2.77;;
4921;SDS011;16625;53.624;10.106;2022-12-07T17:44:22;3.60;;;2.97;;
4921;SDS011;16625;53.624;10.106;2022-12-07T17:46:51;4.73;;;2.90;;
4921;SDS011;16625;53.624;10.106;2022-12-07T17:49:20;8.67;;;3.30;;
4921;SDS011;16625;53.624;10.106;2022-12-07T17:51:47;7.03;;;3.10;;
4921;SDS011;16625;53.624;10.106;2022-12-07T17:54:31;4.77;;;2.83;;
4921;SDS011;16625;53.624;10.106;2022-12-07T17:56:58;7.70;;;3.17;;
4921;SDS011;16625;53.624;10.106;2022-12-07T17:59:26;4.53;;;2.90;;
4921;SDS011;16625;53.624;10.106;2022-12-07T18:01:53;9.00;;;3.03;;
4921;SDS011;16625;53.624;10.106;2022-12-07T18:04:20;7.03;;;3.70;;
4921;SDS011;16625;53.624;10.106;2022-12-07T18:06:47;6.50;;;3.63;;
4921;SDS011;16625;53.624;10.106;2022-12-07T18:09:13;6.43;;;3.93;;
4921;SDS011;16625;53.624;10.106;2022-12-07T18:11:40;6.27;;;3.03;;
4921;SDS011;16625;53.624;10.106;2022-12-07T18:14:07;6.53;;;3.83;;
4921;SDS011;16625;53.624;10.106;2022-12-07T18:16:35;6.40;;;3.67;;
4921;SDS011;16625;53.624;10.106;2022-12-07T18:19:03;5.20;;;3.43;;
4921;SDS011;16625;53.624;10.106;2022-12-07T18:21:31;8.90;;;4.20;;
4921;SDS011;16625;53.624;10.106;2022-12-07T18:23:59;7.90;;;4.60;;
4921;SDS011;16625;53.624;10.106;2022-12-07T18:26:28;7.27;;;4.27;;
4921;SDS011;16625;53.624;10.106;2022-12-07T18:28:57;12.50;;;5.00;;
4921;SDS011;16625;53.624;10.106;2022-12-07T18:31:24;9.40;;;4.27;;
4921;SDS011;16625;53.624;10.106;2022-12-07T18:33:53;8.63;;;5.20;;
4921;SDS011;16625;53.624;10.106;2022-12-07T18:36:21;11.60;;;5.27;;
4921;SDS011;16625;53.624;10.106;2022-12-07T18:38:48;11.43;;;7.67;;
4921;SDS011;16625;53.624;10.106;2022-12-07T18:41:15;9.00;;;6.23;;
4921;SDS011;16625;53.624;10.106;2022-12-07T18:43:42;12.90;;;5.73;;
4921;SDS011;16625;53.624;10.106;2022-12-07T18:46:09;9.70;;;5.73;;
4921;SDS011;16625;53.624;10.106;2022-12-07T18:55:23;13.27;;;6.47;;
4921;SDS011;16625;53.624;10.106;2022-12-07T18:57:51;9.60;;;7.47;;
4921;SDS011;16625;53.624;10.106;2022-12-07T19:00:18;11.40;;;7.50;;
4921;SDS011;16625;53.624;10.106;2022-12-07T19:02:47;10.10;;;6.80;;
4921;SDS011;16625;53.624;10.106;2022-12-07T19:05:15;15.17;;;7.83;;
4921;SDS011;16625;53.624;10.106;2022-12-07T19:07:44;14.50;;;8.13;;
4921;SDS011;16625;53.624;10.106;2022-12-07T19:10:18;14.50;;;8.30;;
4921;SDS011;16625;53.624;10.106;2022-12-07T19:12:48;19.70;;;9.80;;
4921;SDS011;16625;53.624;10.106;2022-12-07T19:15:15;13.83;;;8.03;;
4921;SDS011;16625;53.624;10.106;2022-12-07T19:17:43;14.60;;;7.90;;
4921;SDS011;16625;53.624;10.106;2022-12-07T19:20:11;22.80;;;8.70;;
4921;SDS011;16625;53.624;10.106;2022-12-07T19:22:40;18.30;;;8.23;;
4921;SDS011;16625;53.624;10.106;2022-12-07T19:25:08;12.33;;;7.40;;
4921;SDS011;16625;53.624;10.106;2022-12-07T19:27:35;13.63;;;8.37;;
4921;SDS011;16625;53.624;10.106;2022-12-07T19:30:05;13.83;;;7.33;;
4921;SDS011;16625;53.624;10.106;2022-12-07T19:35:41;17.30;;;6.87;;
4921;SDS011;16625;53.624;10.106;2022-12-07T19:38:22;11.57;;;6.67;;
4921;SDS011;16625;53.624;10.106;2022-12-07T19:40:49;9.97;;;6.03;;
4921;SDS011;16625;53.624;10.106;2022-12-07T19:43:16;16.60;;;6.90;;
4921;SDS011;16625;53.624;10.106;2022-12-07T19:45:46;12.23;;;6.93;;
4921;SDS011;16625;53.624;10.106;2022-12-07T19:48:15;11.50;;;7.60;;
4921;SDS011;16625;53.624;10.106;2022-12-07T19:50:42;17.50;;;6.13;;
4921;SDS011;16625;53.624;10.106;2022-12-07T19:53:10;13.47;;;7.77;;
4921;SDS011;16625;53.624;10.106;2022-12-07T19:55:37;12.77;;;7.27;;
4921;SDS011;16625;53.624;10.106;2022-12-07T19:58:07;8.53;;;5.20;;
4921;SDS011;16625;53.624;10.106;2022-12-07T20:00:35;10.40;;;6.60;;
4921;SDS011;16625;53.624;10.106;2022-12-07T20:03:04;17.10;;;7.63;;
4921;SDS011;16625;53.624;10.106;2022-12-07T20:05:32;11.97;;;6.23;;
4921;SDS011;16625;53.624;10.106;2022-12-07T20:08:00;13.77;;;8.30;;
4921;SDS011;16625;53.624;10.106;2022-12-07T20:10:28;17.40;;;7.20;;
4921;SDS011;16625;53.624;10.106;2022-12-07T20:12:58;13.40;;;7.20;;
4921;SDS011;16625;53.624;10.106;2022-12-07T20:15:43;16.90;;;7.47;;
4921;SDS011;16625;53.624;10.106;2022-12-07T20:18:12;17.87;;;8.63;;
4921;SDS011;16625;53.624;10.106;2022-12-07T20:20:39;21.30;;;8.13;;
4921;SDS011;16625;53.624;10.106;2022-12-07T20:23:08;12.70;;;8.23;;
4921;SDS011;16625;53.624;10.106;2022-12-07T20:25:35;20.53;;;8.10;;
4921;SDS011;16625;53.624;10.106;2022-12-07T20:28:02;20.90;;;8.77;;
4921;SDS011;16625;53.624;10.106;2022-12-07T20:30:30;16.07;;;10.10;;
4921;SDS011;16625;53.624;10.106;2022-12-07T20:32:57;15.33;;;8.17;;
4921;SDS011;16625;53.624;10.106;2022-12-07T20:35:27;17.53;;;9.60;;
4921;SDS011;16625;53.624;10.106;2022-12-07T20:37:55;32.57;;;8.87;;
4921;SDS011;16625;53.624;10.106;2022-12-07T20:40:24;17.33;;;10.40;;
4921;SDS011;16625;53.624;10.106;2022-12-07T20:42:51;15.83;;;9.37;;
4921;SDS011;16625;53.624;10.106;2022-12-07T20:45:19;19.67;;;9.40;;
4921;SDS011;16625;53.624;10.106;2022-12-07T20:47:47;16.33;;;9.47;;
4921;SDS011;16625;53.624;10.106;2022-12-07T20:50:15;15.33;;;8.30;;
4921;SDS011;16625;53.624;10.106;2022-12-07T20:52:44;22.97;;;10.17;;
4921;SDS011;16625;53.624;10.106;2022-12-07T20:55:11;21.77;;;11.63;;
4921;SDS011;16625;53.624;10.106;2022-12-07T20:57:39;27.27;;;11.07;;
4921;SDS011;16625;53.624;10.106;2022-12-07T21:00:08;23.17;;;11.53;;
4921;SDS011;16625;53.624;10.106;2022-12-07T21:02:37;22.40;;;12.00;;
4921;SDS011;16625;53.624;10.106;2022-12-07T21:05:05;21.77;;;14.17;;
4921;SDS011;16625;53.624;10.106;2022-12-07T21:07:32;27.70;;;13.80;;
4921;SDS011;16625;53.624;10.106;2022-12-07T21:10:02;25.67;;;13.73;;
4921;SDS011;16625;53.624;10.106;2022-12-07T21:12:30;26.53;;;14.43;;
4921;SDS011;16625;53.624;10.106;2022-12-07T21:14:57;37.63;;;13.87;;
4921;SDS011;16625;53.624;10.106;2022-12-07T21:17:25;27.03;;;13.70;;
4921;SDS011;16625;53.624;10.106;2022-12-07T21:19:53;26.37;;;12.43;;
4921;SDS011;16625;53.624;10.106;2022-12-07T21:22:22;26.83;;;12.67;;
4921;SDS011;16625;53.624;10.106;2022-12-07T21:24:50;30.33;;;13.97;;
4921;SDS011;16625;53.624;10.106;2022-12-07T21:27:19;31.20;;;15.83;;
4921;SDS011;16625;53.624;10.106;2022-12-07T21:29:47;44.87;;;17.80;;
4921;SDS011;16625;53.624;10.106;2022-12-07T21:32:17;28.30;;;14.97;;
4921;SDS011;16625;53.624;10.106;2022-12-07T21:39:51;31.73;;;13.97;;
4921;SDS011;16625;53.624;10.106;2022-12-07T21:51:40;30.37;;;14.90;;
4921;SDS011;16625;53.624;10.106;2022-12-07T21:54:22;35.50;;;15.67;;
4921;SDS011;16625;53.624;10.106;2022-12-07T21:56:51;30.13;;;15.70;;
4921;SDS011;16625;53.624;10.106;2022-12-07T21:59:23;27.33;;;14.47;;
4921;SDS011;16625;53.624;10.106;2022-12-07T22:01:52;26.07;;;14.20;;
4921;SDS011;16625;53.624;10.106;2022-12-07T22:04:23;37.57;;;13.57;;
4921;SDS011;16625;53.624;10.106;2022-12-07T22:10:08;23.30;;;12.30;;
4921;SDS011;16625;53.624;10.106;2022-12-07T22:12:52;20.23;;;11.40;;
4921;SDS011;16625;53.624;10.106;2022-12-07T22:15:39;28.90;;;12.30;;
4921;SDS011;16625;53.624;10.106;2022-12-07T22:18:14;19.67;;;10.70;;
4921;SDS011;16625;53.624;10.106;2022-12-07T22:20:44;25.00;;;12.20;;
4921;SDS011;16625;53.624;10.106;2022-12-07T22:23:30;23.73;;;11.50;;
4921;SDS011;16625;53.624;10.106;2022-12-07T22:26:17;24.20;;;10.07;;
4921;SDS011;16625;53.624;10.106;2022-12-07T22:28:45;18.20;;;11.83;;
4921;SDS011;16625;53.624;10.106;2022-12-07T23:08:15;13.53;;;7.13;;
4921;SDS011;16625;53.624;10.106;2022-12-07T23:10:42;14.80;;;8.03;;
4921;SDS011;16625;53.624;10.106;2022-12-07T23:13:10;14.20;;;7.90;;
4921;SDS011;16625;53.624;10.106;2022-12-07T23:15:55;15.43;;;8.20;;
4921;SDS011;16625;53.624;10.106;2022-12-07T23:18:22;15.07;;;8.03;;
4921;SDS011;16625;53.624;10.106;2022-12-07T23:20:49;15.60;;;8.27;;
4921;SDS011;16625;53.624;10.106;2022-12-07T23:23:17;11.77;;;7.57;;
4921;SDS011;16625;53.624;10.106;2022-12-07T23:25:44;11.97;;;8.13;;
4921;SDS011;16625;53.624;10.106;2022-12-07T23:28:11;15.83;;;8.87;;
4921;SDS011;16625;53.624;10.106;2022-12-07T23:30:38;13.73;;;7.40;;
4921;SDS011;16625;53.624;10.106;2022-12-07T23:33:05;12.53;;;7.97;;
4921;SDS011;16625;53.624;10.106;2022-12-07T23:35:32;11.77;;;8.23;;
4921;SDS011;16625;53.624;10.106;2022-12-07T23:37:58;16.03;;;9.00;;
4921;SDS011;16625;53.624;10.106;2022-12-07T23:40:27;18.03;;;8.90;;
4921;SDS011;16625;53.624;10.106;2022-12-07T23:42:54;14.63;;;8.87;;
4921;SDS011;16625;53.624;10.106;2022-12-07T23:45:20;11.27;;;8.53;;
4921;SDS011;16625;53.624;10.106;2022-12-07T23:47:48;11.33;;;7.60;;